sensor_id;sensor_type;location;lat;lon;timestamp;P1;durP1;ratioP1;P2;durP2;ratioP2
46613;SDS011;32338;50.430;6.806;2024-02-21T00:00:07;17.90;;;6.05;;
46613;SDS011;32338;50.430;6.806;2024-02-21T00:02:36;19.27;;;7.65;;
46613;SDS011;32338;50.430;6.806;2024-02-21T00:05:04;14.48;;;7.20;;
46613;SDS011;32338;50.430;6.806;2024-02-21T00:07:31;19.30;;;6.85;;
46613;SDS011;32338;50.430;6.806;2024-02-21T00:09:58;14.43;;;6.88;;
46613;SDS011;32338;50.430;6.806;2024-02-21T00:12:25;19.67;;;6.95;;
46613;SDS011;32338;50.430;6.806;2024-02-21T00:14:52;15.07;;;7.13;;
46613;SDS011;32338;50.430;6.806;2024-02-21T00:17:18;17.83;;;7.30;;
46613;SDS011;32338;50.430;6.806;2024-02-21T00:19:45;17.40;;;6.32;;
46613;SDS011;32338;50.430;6.806;2024-02-21T00:22:13;16.85;;;7.05;;
46613;SDS011;32338;50.430;6.806;2024-02-21T00:24:39;22.08;;;7.25;;
46613;SDS011;32338;50.430;6.806;2024-02-21T00:27:06;12.55;;;6.78;;
46613;SDS011;32338;50.430;6.806;2024-02-21T00:29:33;15.35;;;6.15;;
46613;SDS011;32338;50.430;6.806;2024-02-21T00:32:00;16.25;;;6.53;;
46613;SDS011;32338;50.430;6.806;2024-02-21T00:34:27;20.05;;;6.88;;
46613;SDS011;32338;50.430;6.806;2024-02-21T00:36:53;21.00;;;7.25;;
46613;SDS011;32338;50.430;6.806;2024-02-21T00:39:21;17.42;;;6.65;;
46613;SDS011;32338;50.430;6.806;2024-02-21T00:41:48;20.20;;;6.40;;
46613;SDS011;32338;50.430;6.806;2024-02-21T00:44:14;16.13;;;6.15;;
46613;SDS011;32338;50.430;6.806;2024-02-21T00:46:41;19.88;;;7.18;;
46613;SDS011;32338;50.430;6.806;2024-02-21T00:49:07;18.20;;;6.35;;
46613;SDS011;32338;50.430;6.806;2024-02-21T00:51:34;18.40;;;6.93;;
46613;SDS011;32338;50.430;6.806;2024-02-21T00:54:01;19.77;;;6.18;;
46613;SDS011;32338;50.430;6.806;2024-02-21T00:56:29;18.38;;;5.97;;
46613;SDS011;32338;50.430;6.806;2024-02-21T00:58:56;18.48;;;6.45;;
46613;SDS011;32338;50.430;6.806;2024-02-21T01:01:22;22.85;;;6.63;;
46613;SDS011;32338;50.430;6.806;2024-02-21T01:03:49;16.80;;;6.45;;
46613;SDS011;32338;50.430;6.806;2024-02-21T01:06:18;12.55;;;5.65;;
46613;SDS011;32338;50.430;6.806;2024-02-21T01:08:45;17.08;;;6.03;;
46613;SDS011;32338;50.430;6.806;2024-02-21T01:11:12;18.30;;;6.38;;
46613;SDS011;32338;50.430;6.806;2024-02-21T01:13:40;12.50;;;6.15;;
46613;SDS011;32338;50.430;6.806;2024-02-21T01:16:06;12.75;;;5.95;;
46613;SDS011;32338;50.430;6.806;2024-02-21T01:18:33;17.50;;;4.75;;
46613;SDS011;32338;50.430;6.806;2024-02-21T01:21:00;17.08;;;5.47;;
46613;SDS011;32338;50.430;6.806;2024-02-21T01:23:26;15.82;;;6.05;;
46613;SDS011;32338;50.430;6.806;2024-02-21T01:25:52;16.83;;;5.50;;
46613;SDS011;32338;50.430;6.806;2024-02-21T01:28:20;14.50;;;5.68;;
46613;SDS011;32338;50.430;6.806;2024-02-21T01:30:48;16.73;;;5.47;;
46613;SDS011;32338;50.430;6.806;2024-02-21T01:33:15;21.27;;;5.78;;
46613;SDS011;32338;50.430;6.806;2024-02-21T01:35:41;26.98;;;7.47;;
46613;SDS011;32338;50.430;6.806;2024-02-21T01:38:08;18.42;;;5.72;;
46613;SDS011;32338;50.430;6.806;2024-02-21T01:40:35;20.38;;;6.32;;
46613;SDS011;32338;50.430;6.806;2024-02-21T01:43:02;20.08;;;5.95;;
46613;SDS011;32338;50.430;6.806;2024-02-21T01:45:29;16.33;;;5.78;;
46613;SDS011;32338;50.430;6.806;2024-02-21T01:47:57;17.63;;;5.50;;
46613;SDS011;32338;50.430;6.806;2024-02-21T01:50:24;16.60;;;5.97;;
46613;SDS011;32338;50.430;6.806;2024-02-21T01:52:51;20.52;;;5.65;;
46613;SDS011;32338;50.430;6.806;2024-02-21T01:55:17;14.43;;;5.88;;
46613;SDS011;32338;50.430;6.806;2024-02-21T01:57:44;21.67;;;5.75;;
46613;SDS011;32338;50.430;6.806;2024-02-21T02:00:12;19.10;;;5.65;;
46613;SDS011;32338;50.430;6.806;2024-02-21T02:02:40;19.98;;;6.50;;
46613;SDS011;32338;50.430;6.806;2024-02-21T02:05:09;17.20;;;5.60;;
46613;SDS011;32338;50.430;6.806;2024-02-21T02:07:36;19.85;;;6.70;;
46613;SDS011;32338;50.430;6.806;2024-02-21T02:10:03;22.25;;;6.00;;
46613;SDS011;32338;50.430;6.806;2024-02-21T02:12:31;18.98;;;6.80;;
46613;SDS011;32338;50.430;6.806;2024-02-21T02:14:58;20.67;;;6.07;;
46613;SDS011;32338;50.430;6.806;2024-02-21T02:17:25;24.00;;;6.00;;
46613;SDS011;32338;50.430;6.806;2024-02-21T02:19:52;25.10;;;6.72;;
46613;SDS011;32338;50.430;6.806;2024-02-21T02:22:21;18.65;;;5.60;;
46613;SDS011;32338;50.430;6.806;2024-02-21T02:24:50;20.38;;;5.68;;
46613;SDS011;32338;50.430;6.806;2024-02-21T02:27:17;16.88;;;6.22;;
46613;SDS011;32338;50.430;6.806;2024-02-21T02:29:44;18.38;;;5.47;;
46613;SDS011;32338;50.430;6.806;2024-02-21T02:32:11;21.45;;;6.15;;
46613;SDS011;32338;50.430;6.806;2024-02-21T02:34:38;21.67;;;5.82;;
46613;SDS011;32338;50.430;6.806;2024-02-21T02:37:04;13.80;;;5.57;;
46613;SDS011;32338;50.430;6.806;2024-02-21T02:39:31;17.90;;;5.78;;
46613;SDS011;32338;50.430;6.806;2024-02-21T02:41:59;17.50;;;6.05;;
46613;SDS011;32338;50.430;6.806;2024-02-21T02:44:25;12.65;;;5.05;;
46613;SDS011;32338;50.430;6.806;2024-02-21T02:46:52;21.42;;;5.50;;
46613;SDS011;32338;50.430;6.806;2024-02-21T02:49:19;21.13;;;6.10;;
46613;SDS011;32338;50.430;6.806;2024-02-21T02:51:45;16.42;;;5.68;;
46613;SDS011;32338;50.430;6.806;2024-02-21T02:54:12;15.95;;;5.05;;
46613;SDS011;32338;50.430;6.806;2024-02-21T02:56:38;20.95;;;5.65;;
46613;SDS011;32338;50.430;6.806;2024-02-21T02:59:06;19.95;;;5.72;;
46613;SDS011;32338;50.430;6.806;2024-02-21T03:01:33;21.08;;;6.13;;
46613;SDS011;32338;50.430;6.806;2024-02-21T03:04:00;16.55;;;5.03;;
46613;SDS011;32338;50.430;6.806;2024-02-21T03:06:26;16.73;;;5.40;;
46613;SDS011;32338;50.430;6.806;2024-02-21T03:08:53;19.05;;;5.53;;
46613;SDS011;32338;50.430;6.806;2024-02-21T03:11:20;17.00;;;4.95;;
46613;SDS011;32338;50.430;6.806;2024-02-21T03:13:53;17.85;;;4.90;;
46613;SDS011;32338;50.430;6.806;2024-02-21T03:16:22;14.27;;;4.95;;
46613;SDS011;32338;50.430;6.806;2024-02-21T03:18:48;15.20;;;3.92;;
46613;SDS011;32338;50.430;6.806;2024-02-21T03:21:15;17.45;;;4.95;;
46613;SDS011;32338;50.430;6.806;2024-02-21T03:23:41;12.20;;;4.68;;
46613;SDS011;32338;50.430;6.806;2024-02-21T03:26:08;14.65;;;4.88;;
46613;SDS011;32338;50.430;6.806;2024-02-21T03:28:34;19.42;;;4.72;;
46613;SDS011;32338;50.430;6.806;2024-02-21T03:31:01;12.23;;;4.20;;
46613;SDS011;32338;50.430;6.806;2024-02-21T03:33:29;14.18;;;5.38;;
46613;SDS011;32338;50.430;6.806;2024-02-21T03:35:56;21.20;;;6.00;;
46613;SDS011;32338;50.430;6.806;2024-02-21T03:38:22;17.25;;;5.50;;
46613;SDS011;32338;50.430;6.806;2024-02-21T03:40:49;12.13;;;4.95;;
46613;SDS011;32338;50.430;6.806;2024-02-21T03:43:15;17.60;;;5.47;;
46613;SDS011;32338;50.430;6.806;2024-02-21T03:45:42;22.58;;;5.43;;
46613;SDS011;32338;50.430;6.806;2024-02-21T03:48:09;11.60;;;5.05;;
46613;SDS011;32338;50.430;6.806;2024-02-21T03:50:36;20.38;;;5.35;;
46613;SDS011;32338;50.430;6.806;2024-02-21T03:53:03;11.13;;;4.60;;
46613;SDS011;32338;50.430;6.806;2024-02-21T03:55:30;18.08;;;5.78;;
46613;SDS011;32338;50.430;6.806;2024-02-21T03:57:56;18.15;;;5.40;;
46613;SDS011;32338;50.430;6.806;2024-02-21T04:00:23;17.92;;;5.05;;
46613;SDS011;32338;50.430;6.806;2024-02-21T04:02:49;17.25;;;5.50;;
46613;SDS011;32338;50.430;6.806;2024-02-21T04:05:16;19.58;;;5.57;;
46613;SDS011;32338;50.430;6.806;2024-02-21T04:07:44;16.30;;;5.05;;
46613;SDS011;32338;50.430;6.806;2024-02-21T04:10:11;16.48;;;5.63;;
46613;SDS011;32338;50.430;6.806;2024-02-21T04:12:38;23.25;;;5.32;;
46613;SDS011;32338;50.430;6.806;2024-02-21T04:15:05;22.65;;;5.95;;
46613;SDS011;32338;50.430;6.806;2024-02-21T04:17:32;15.18;;;5.00;;
46613;SDS011;32338;50.430;6.806;2024-02-21T04:20:01;14.45;;;5.20;;
46613;SDS011;32338;50.430;6.806;2024-02-21T04:22:30;14.43;;;4.90;;
46613;SDS011;32338;50.430;6.806;2024-02-21T04:24:59;16.77;;;5.70;;
46613;SDS011;32338;50.430;6.806;2024-02-21T04:27:26;18.73;;;5.72;;
46613;SDS011;32338;50.430;6.806;2024-02-21T04:29:53;11.07;;;4.80;;
46613;SDS011;32338;50.430;6.806;2024-02-21T04:32:19;16.70;;;5.40;;
46613;SDS011;32338;50.430;6.806;2024-02-21T04:34:46;18.60;;;5.35;;
46613;SDS011;32338;50.430;6.806;2024-02-21T04:37:12;18.67;;;6.10;;
46613;SDS011;32338;50.430;6.806;2024-02-21T04:39:39;13.73;;;5.13;;
46613;SDS011;32338;50.430;6.806;2024-02-21T04:42:07;13.27;;;4.88;;
46613;SDS011;32338;50.430;6.806;2024-02-21T04:44:33;18.42;;;4.88;;
46613;SDS011;32338;50.430;6.806;2024-02-21T04:47:00;14.98;;;5.15;;
46613;SDS011;32338;50.430;6.806;2024-02-21T04:49:28;16.52;;;4.63;;
46613;SDS011;32338;50.430;6.806;2024-02-21T04:51:55;13.27;;;4.85;;
46613;SDS011;32338;50.430;6.806;2024-02-21T04:54:21;9.43;;;4.13;;
46613;SDS011;32338;50.430;6.806;2024-02-21T04:56:48;11.27;;;4.28;;
46613;SDS011;32338;50.430;6.806;2024-02-21T04:59:16;17.77;;;5.05;;
46613;SDS011;32338;50.430;6.806;2024-02-21T05:01:43;11.77;;;4.05;;
46613;SDS011;32338;50.430;6.806;2024-02-21T05:04:09;17.13;;;4.38;;
46613;SDS011;32338;50.430;6.806;2024-02-21T05:06:37;19.38;;;4.65;;
46613;SDS011;32338;50.430;6.806;2024-02-21T05:09:05;12.30;;;4.03;;
46613;SDS011;32338;50.430;6.806;2024-02-21T05:11:32;19.10;;;7.13;;
46613;SDS011;32338;50.430;6.806;2024-02-21T05:13:58;11.60;;;4.82;;
46613;SDS011;32338;50.430;6.806;2024-02-21T05:16:26;14.05;;;5.00;;
46613;SDS011;32338;50.430;6.806;2024-02-21T05:18:53;11.00;;;4.78;;
46613;SDS011;32338;50.430;6.806;2024-02-21T05:21:19;17.70;;;5.10;;
46613;SDS011;32338;50.430;6.806;2024-02-21T05:23:46;21.80;;;5.97;;
46613;SDS011;32338;50.430;6.806;2024-02-21T05:26:19;14.15;;;5.50;;
46613;SDS011;32338;50.430;6.806;2024-02-21T05:28:46;12.15;;;5.53;;
46613;SDS011;32338;50.430;6.806;2024-02-21T05:31:13;19.77;;;5.70;;
46613;SDS011;32338;50.430;6.806;2024-02-21T05:33:41;14.82;;;5.60;;
46613;SDS011;32338;50.430;6.806;2024-02-21T05:36:08;15.63;;;5.25;;
46613;SDS011;32338;50.430;6.806;2024-02-21T05:38:34;14.25;;;5.28;;
46613;SDS011;32338;50.430;6.806;2024-02-21T05:41:01;13.07;;;5.07;;
46613;SDS011;32338;50.430;6.806;2024-02-21T05:43:28;18.63;;;5.15;;
46613;SDS011;32338;50.430;6.806;2024-02-21T05:45:55;11.70;;;5.32;;
46613;SDS011;32338;50.430;6.806;2024-02-21T05:48:22;11.68;;;5.35;;
46613;SDS011;32338;50.430;6.806;2024-02-21T05:50:50;18.65;;;5.50;;
46613;SDS011;32338;50.430;6.806;2024-02-21T05:53:17;16.38;;;6.20;;
46613;SDS011;32338;50.430;6.806;2024-02-21T05:55:43;12.48;;;4.43;;
46613;SDS011;32338;50.430;6.806;2024-02-21T05:58:10;20.13;;;5.80;;
46613;SDS011;32338;50.430;6.806;2024-02-21T06:00:38;16.40;;;5.30;;
46613;SDS011;32338;50.430;6.806;2024-02-21T06:03:05;16.10;;;4.97;;
46613;SDS011;32338;50.430;6.806;2024-02-21T06:05:36;14.88;;;5.35;;
46613;SDS011;32338;50.430;6.806;2024-02-21T06:08:05;12.70;;;4.45;;
46613;SDS011;32338;50.430;6.806;2024-02-21T06:10:32;20.90;;;5.95;;
46613;SDS011;32338;50.430;6.806;2024-02-21T06:12:58;17.55;;;6.28;;
46613;SDS011;32338;50.430;6.806;2024-02-21T06:15:25;16.33;;;5.25;;
46613;SDS011;32338;50.430;6.806;2024-02-21T06:17:51;16.77;;;4.85;;
46613;SDS011;32338;50.430;6.806;2024-02-21T06:20:18;12.80;;;4.90;;
46613;SDS011;32338;50.430;6.806;2024-02-21T06:22:44;14.90;;;5.45;;
46613;SDS011;32338;50.430;6.806;2024-02-21T06:25:12;17.05;;;4.65;;
46613;SDS011;32338;50.430;6.806;2024-02-21T06:27:39;13.93;;;4.75;;
46613;SDS011;32338;50.430;6.806;2024-02-21T06:30:06;17.83;;;5.15;;
46613;SDS011;32338;50.430;6.806;2024-02-21T06:32:33;12.98;;;4.88;;
46613;SDS011;32338;50.430;6.806;2024-02-21T06:34:59;16.88;;;4.78;;
46613;SDS011;32338;50.430;6.806;2024-02-21T06:37:27;14.95;;;5.15;;
46613;SDS011;32338;50.430;6.806;2024-02-21T06:39:53;13.77;;;5.20;;
46613;SDS011;32338;50.430;6.806;2024-02-21T06:42:21;13.82;;;4.47;;
46613;SDS011;32338;50.430;6.806;2024-02-21T06:44:51;14.65;;;4.38;;
46613;SDS011;32338;50.430;6.806;2024-02-21T06:47:17;13.38;;;4.60;;
46613;SDS011;32338;50.430;6.806;2024-02-21T06:49:48;14.07;;;4.20;;
46613;SDS011;32338;50.430;6.806;2024-02-21T06:52:14;15.43;;;4.53;;
46613;SDS011;32338;50.430;6.806;2024-02-21T06:54:42;11.05;;;4.25;;
46613;SDS011;32338;50.430;6.806;2024-02-21T06:57:08;13.40;;;4.68;;
46613;SDS011;32338;50.430;6.806;2024-02-21T06:59:36;12.52;;;4.22;;
46613;SDS011;32338;50.430;6.806;2024-02-21T07:02:03;15.07;;;4.28;;
46613;SDS011;32338;50.430;6.806;2024-02-21T07:04:30;16.13;;;5.28;;
46613;SDS011;32338;50.430;6.806;2024-02-21T07:06:56;17.42;;;4.78;;
46613;SDS011;32338;50.430;6.806;2024-02-21T07:09:23;13.05;;;4.35;;
46613;SDS011;32338;50.430;6.806;2024-02-21T07:11:49;13.30;;;4.63;;
46613;SDS011;32338;50.430;6.806;2024-02-21T07:14:17;21.83;;;4.65;;
46613;SDS011;32338;50.430;6.806;2024-02-21T07:16:45;12.32;;;4.25;;
46613;SDS011;32338;50.430;6.806;2024-02-21T07:19:12;20.90;;;5.22;;
46613;SDS011;32338;50.430;6.806;2024-02-21T07:21:39;13.65;;;3.92;;
46613;SDS011;32338;50.430;6.806;2024-02-21T07:24:07;20.25;;;5.72;;
46613;SDS011;32338;50.430;6.806;2024-02-21T07:26:34;14.48;;;4.18;;
46613;SDS011;32338;50.430;6.806;2024-02-21T07:29:00;17.02;;;4.30;;
46613;SDS011;32338;50.430;6.806;2024-02-21T07:31:27;11.73;;;4.15;;
46613;SDS011;32338;50.430;6.806;2024-02-21T07:33:55;15.18;;;4.80;;
46613;SDS011;32338;50.430;6.806;2024-02-21T07:36:27;10.25;;;4.13;;
46613;SDS011;32338;50.430;6.806;2024-02-21T07:38:55;16.38;;;4.50;;
46613;SDS011;32338;50.430;6.806;2024-02-21T07:41:22;17.08;;;4.40;;
46613;SDS011;32338;50.430;6.806;2024-02-21T07:43:48;11.55;;;4.55;;
46613;SDS011;32338;50.430;6.806;2024-02-21T07:46:15;16.58;;;4.15;;
46613;SDS011;32338;50.430;6.806;2024-02-21T07:48:41;15.23;;;3.75;;
46613;SDS011;32338;50.430;6.806;2024-02-21T07:51:09;10.63;;;4.50;;
46613;SDS011;32338;50.430;6.806;2024-02-21T07:53:38;13.13;;;4.43;;
46613;SDS011;32338;50.430;6.806;2024-02-21T07:56:09;13.20;;;3.90;;
46613;SDS011;32338;50.430;6.806;2024-02-21T07:58:36;9.93;;;3.50;;
46613;SDS011;32338;50.430;6.806;2024-02-21T08:01:02;10.95;;;3.90;;
46613;SDS011;32338;50.430;6.806;2024-02-21T08:03:29;14.50;;;4.25;;
46613;SDS011;32338;50.430;6.806;2024-02-21T08:05:56;12.80;;;4.60;;
46613;SDS011;32338;50.430;6.806;2024-02-21T08:08:24;13.52;;;4.18;;
46613;SDS011;32338;50.430;6.806;2024-02-21T08:10:51;12.20;;;4.13;;
46613;SDS011;32338;50.430;6.806;2024-02-21T08:13:18;14.75;;;4.30;;
46613;SDS011;32338;50.430;6.806;2024-02-21T08:15:44;16.00;;;4.70;;
46613;SDS011;32338;50.430;6.806;2024-02-21T08:18:11;14.85;;;4.55;;
46613;SDS011;32338;50.430;6.806;2024-02-21T08:20:37;15.57;;;4.18;;
46613;SDS011;32338;50.430;6.806;2024-02-21T08:23:04;14.65;;;3.95;;
46613;SDS011;32338;50.430;6.806;2024-02-21T08:25:32;12.70;;;3.95;;
46613;SDS011;32338;50.430;6.806;2024-02-21T08:27:59;14.63;;;4.65;;
46613;SDS011;32338;50.430;6.806;2024-02-21T08:30:25;15.60;;;3.55;;
46613;SDS011;32338;50.430;6.806;2024-02-21T08:32:52;11.75;;;4.10;;
46613;SDS011;32338;50.430;6.806;2024-02-21T08:35:20;16.33;;;3.90;;
46613;SDS011;32338;50.430;6.806;2024-02-21T08:37:47;8.90;;;3.17;;
46613;SDS011;32338;50.430;6.806;2024-02-21T08:40:14;13.48;;;3.78;;
46613;SDS011;32338;50.430;6.806;2024-02-21T08:42:44;8.57;;;3.42;;
46613;SDS011;32338;50.430;6.806;2024-02-21T08:45:10;13.77;;;3.25;;
46613;SDS011;32338;50.430;6.806;2024-02-21T08:47:39;11.38;;;3.75;;
46613;SDS011;32338;50.430;6.806;2024-02-21T08:50:06;12.10;;;3.40;;
46613;SDS011;32338;50.430;6.806;2024-02-21T08:52:34;6.30;;;3.20;;
46613;SDS011;32338;50.430;6.806;2024-02-21T08:55:01;12.77;;;3.70;;
46613;SDS011;32338;50.430;6.806;2024-02-21T08:57:27;12.30;;;2.88;;
46613;SDS011;32338;50.430;6.806;2024-02-21T08:59:55;11.55;;;3.60;;
46613;SDS011;32338;50.430;6.806;2024-02-21T09:02:22;7.15;;;2.72;;
46613;SDS011;32338;50.430;6.806;2024-02-21T09:04:48;10.65;;;2.67;;
46613;SDS011;32338;50.430;6.806;2024-02-21T09:07:15;9.13;;;3.10;;
46613;SDS011;32338;50.430;6.806;2024-02-21T09:09:41;14.25;;;3.15;;
46613;SDS011;32338;50.430;6.806;2024-02-21T09:12:08;9.95;;;3.08;;
46613;SDS011;32338;50.430;6.806;2024-02-21T09:14:37;14.63;;;2.95;;
46613;SDS011;32338;50.430;6.806;2024-02-21T09:17:05;6.97;;;2.78;;
46613;SDS011;32338;50.430;6.806;2024-02-21T09:19:32;9.80;;;2.75;;
46613;SDS011;32338;50.430;6.806;2024-02-21T09:21:59;9.45;;;2.85;;
46613;SDS011;32338;50.430;6.806;2024-02-21T09:24:26;11.27;;;3.70;;
46613;SDS011;32338;50.430;6.806;2024-02-21T09:26:52;8.57;;;2.28;;
46613;SDS011;32338;50.430;6.806;2024-02-21T09:29:19;9.60;;;3.67;;
46613;SDS011;32338;50.430;6.806;2024-02-21T09:31:46;11.20;;;2.97;;
46613;SDS011;32338;50.430;6.806;2024-02-21T09:34:14;13.57;;;3.67;;
46613;SDS011;32338;50.430;6.806;2024-02-21T09:36:40;14.32;;;3.03;;
46613;SDS011;32338;50.430;6.806;2024-02-21T09:39:07;5.15;;;2.50;;
46613;SDS011;32338;50.430;6.806;2024-02-21T09:41:36;10.88;;;3.33;;
46613;SDS011;32338;50.430;6.806;2024-02-21T09:44:09;7.55;;;2.60;;
46613;SDS011;32338;50.430;6.806;2024-02-21T09:46:40;5.68;;;2.50;;
46613;SDS011;32338;50.430;6.806;2024-02-21T09:49:17;10.50;;;2.53;;
46613;SDS011;32338;50.430;6.806;2024-02-21T09:51:54;10.55;;;3.08;;
46613;SDS011;32338;50.430;6.806;2024-02-21T09:54:23;7.13;;;2.40;;
46613;SDS011;32338;50.430;6.806;2024-02-21T09:56:50;8.50;;;2.55;;
46613;SDS011;32338;50.430;6.806;2024-02-21T09:59:17;5.35;;;2.47;;
46613;SDS011;32338;50.430;6.806;2024-02-21T10:01:44;12.48;;;2.95;;
46613;SDS011;32338;50.430;6.806;2024-02-21T10:04:12;11.50;;;3.45;;
46613;SDS011;32338;50.430;6.806;2024-02-21T10:06:40;6.38;;;2.88;;
46613;SDS011;32338;50.430;6.806;2024-02-21T10:09:07;7.18;;;2.70;;
46613;SDS011;32338;50.430;6.806;2024-02-21T10:11:34;12.60;;;3.00;;
46613;SDS011;32338;50.430;6.806;2024-02-21T10:14:04;8.02;;;2.63;;
46613;SDS011;32338;50.430;6.806;2024-02-21T10:16:31;8.50;;;2.50;;
46613;SDS011;32338;50.430;6.806;2024-02-21T10:18:58;10.48;;;2.42;;
46613;SDS011;32338;50.430;6.806;2024-02-21T10:21:25;11.05;;;3.10;;
46613;SDS011;32338;50.430;6.806;2024-02-21T10:23:53;4.97;;;2.38;;
46613;SDS011;32338;50.430;6.806;2024-02-21T10:26:19;7.70;;;2.30;;
46613;SDS011;32338;50.430;6.806;2024-02-21T10:28:47;9.75;;;2.80;;
46613;SDS011;32338;50.430;6.806;2024-02-21T10:31:22;4.28;;;2.72;;
46613;SDS011;32338;50.430;6.806;2024-02-21T10:33:54;7.45;;;2.40;;
46613;SDS011;32338;50.430;6.806;2024-02-21T10:36:21;7.72;;;2.33;;
46613;SDS011;32338;50.430;6.806;2024-02-21T10:38:48;4.30;;;2.55;;
46613;SDS011;32338;50.430;6.806;2024-02-21T10:41:16;12.30;;;2.50;;
46613;SDS011;32338;50.430;6.806;2024-02-21T10:43:46;8.50;;;3.25;;
46613;SDS011;32338;50.430;6.806;2024-02-21T10:46:17;10.98;;;3.22;;
46613;SDS011;32338;50.430;6.806;2024-02-21T10:48:45;6.90;;;2.75;;
46613;SDS011;32338;50.430;6.806;2024-02-21T10:51:16;8.38;;;2.95;;
46613;SDS011;32338;50.430;6.806;2024-02-21T10:53:45;5.32;;;3.00;;
46613;SDS011;32338;50.430;6.806;2024-02-21T10:56:19;10.25;;;2.90;;
46613;SDS011;32338;50.430;6.806;2024-02-21T10:58:49;5.13;;;3.10;;
46613;SDS011;32338;50.430;6.806;2024-02-21T11:01:17;6.53;;;2.95;;
46613;SDS011;32338;50.430;6.806;2024-02-21T11:03:45;11.43;;;2.75;;
46613;SDS011;32338;50.430;6.806;2024-02-21T11:06:13;11.73;;;4.03;;
46613;SDS011;32338;50.430;6.806;2024-02-21T11:08:41;14.73;;;3.45;;
46613;SDS011;32338;50.430;6.806;2024-02-21T11:11:11;11.30;;;3.35;;
46613;SDS011;32338;50.430;6.806;2024-02-21T11:13:43;8.35;;;2.88;;
46613;SDS011;32338;50.430;6.806;2024-02-21T11:16:11;11.73;;;3.38;;
46613;SDS011;32338;50.430;6.806;2024-02-21T11:18:48;6.90;;;2.55;;
46613;SDS011;32338;50.430;6.806;2024-02-21T11:21:14;7.82;;;2.53;;
46613;SDS011;32338;50.430;6.806;2024-02-21T11:23:41;9.27;;;2.55;;
46613;SDS011;32338;50.430;6.806;2024-02-21T11:26:07;8.27;;;2.42;;
46613;SDS011;32338;50.430;6.806;2024-02-21T11:28:34;9.50;;;2.83;;
46613;SDS011;32338;50.430;6.806;2024-02-21T11:31:10;11.60;;;2.45;;
46613;SDS011;32338;50.430;6.806;2024-02-21T11:33:39;7.75;;;2.95;;
46613;SDS011;32338;50.430;6.806;2024-02-21T11:36:06;4.80;;;2.03;;
46613;SDS011;32338;50.430;6.806;2024-02-21T11:38:33;6.72;;;2.40;;
46613;SDS011;32338;50.430;6.806;2024-02-21T11:41:00;6.82;;;2.78;;
46613;SDS011;32338;50.430;6.806;2024-02-21T11:43:27;10.25;;;2.47;;
46613;SDS011;32338;50.430;6.806;2024-02-21T11:45:58;10.82;;;2.63;;
46613;SDS011;32338;50.430;6.806;2024-02-21T11:48:27;9.13;;;3.30;;
46613;SDS011;32338;50.430;6.806;2024-02-21T11:50:54;7.15;;;3.03;;
46613;SDS011;32338;50.430;6.806;2024-02-21T11:53:21;7.03;;;2.92;;
46613;SDS011;32338;50.430;6.806;2024-02-21T11:55:47;11.52;;;2.95;;
46613;SDS011;32338;50.430;6.806;2024-02-21T11:58:14;7.28;;;2.28;;
46613;SDS011;32338;50.430;6.806;2024-02-21T12:00:41;6.05;;;2.42;;
46613;SDS011;32338;50.430;6.806;2024-02-21T12:03:08;7.55;;;2.60;;
46613;SDS011;32338;50.430;6.806;2024-02-21T12:05:36;3.95;;;2.33;;
46613;SDS011;32338;50.430;6.806;2024-02-21T12:08:03;7.72;;;2.50;;
46613;SDS011;32338;50.430;6.806;2024-02-21T12:10:30;8.93;;;2.50;;
46613;SDS011;32338;50.430;6.806;2024-02-21T12:13:05;9.02;;;2.67;;
46613;SDS011;32338;50.430;6.806;2024-02-21T12:15:32;9.23;;;3.28;;
46613;SDS011;32338;50.430;6.806;2024-02-21T12:17:59;7.03;;;2.10;;
46613;SDS011;32338;50.430;6.806;2024-02-21T12:20:25;7.05;;;2.88;;
46613;SDS011;32338;50.430;6.806;2024-02-21T12:22:53;10.60;;;2.55;;
46613;SDS011;32338;50.430;6.806;2024-02-21T12:25:20;10.95;;;2.83;;
46613;SDS011;32338;50.430;6.806;2024-02-21T12:27:51;7.63;;;2.17;;
46613;SDS011;32338;50.430;6.806;2024-02-21T12:30:18;7.00;;;2.50;;
46613;SDS011;32338;50.430;6.806;2024-02-21T12:32:45;6.78;;;2.42;;
46613;SDS011;32338;50.430;6.806;2024-02-21T12:35:13;9.25;;;2.47;;
46613;SDS011;32338;50.430;6.806;2024-02-21T12:37:40;13.00;;;2.60;;
46613;SDS011;32338;50.430;6.806;2024-02-21T12:40:08;10.43;;;2.65;;
46613;SDS011;32338;50.430;6.806;2024-02-21T12:42:38;9.35;;;2.63;;
46613;SDS011;32338;50.430;6.806;2024-02-21T12:45:05;8.13;;;2.42;;
46613;SDS011;32338;50.430;6.806;2024-02-21T12:47:32;10.65;;;2.40;;
46613;SDS011;32338;50.430;6.806;2024-02-21T12:49:59;13.55;;;3.55;;
46613;SDS011;32338;50.430;6.806;2024-02-21T12:52:28;11.75;;;3.58;;
46613;SDS011;32338;50.430;6.806;2024-02-21T12:54:54;11.23;;;2.70;;
46613;SDS011;32338;50.430;6.806;2024-02-21T12:57:25;8.40;;;2.53;;
46613;SDS011;32338;50.430;6.806;2024-02-21T12:59:51;9.82;;;2.33;;
46613;SDS011;32338;50.430;6.806;2024-02-21T13:02:18;9.45;;;2.47;;
46613;SDS011;32338;50.430;6.806;2024-02-21T13:04:46;9.50;;;2.40;;
46613;SDS011;32338;50.430;6.806;2024-02-21T13:07:12;9.32;;;2.53;;
46613;SDS011;32338;50.430;6.806;2024-02-21T13:09:39;10.82;;;2.30;;
46613;SDS011;32338;50.430;6.806;2024-02-21T13:12:06;5.10;;;2.30;;
46613;SDS011;32338;50.430;6.806;2024-02-21T13:14:34;6.82;;;2.55;;
46613;SDS011;32338;50.430;6.806;2024-02-21T13:17:03;8.60;;;2.22;;
46613;SDS011;32338;50.430;6.806;2024-02-21T13:19:31;7.32;;;2.40;;
46613;SDS011;32338;50.430;6.806;2024-02-21T13:21:57;11.30;;;2.65;;
46613;SDS011;32338;50.430;6.806;2024-02-21T13:24:24;8.95;;;2.25;;
46613;SDS011;32338;50.430;6.806;2024-02-21T13:26:50;11.05;;;2.33;;
46613;SDS011;32338;50.430;6.806;2024-02-21T13:29:17;7.38;;;1.95;;
46613;SDS011;32338;50.430;6.806;2024-02-21T13:31:45;8.23;;;2.20;;
46613;SDS011;32338;50.430;6.806;2024-02-21T13:34:12;6.82;;;2.10;;
46613;SDS011;32338;50.430;6.806;2024-02-21T13:36:38;4.57;;;1.75;;
46613;SDS011;32338;50.430;6.806;2024-02-21T13:39:05;8.45;;;2.65;;
46613;SDS011;32338;50.430;6.806;2024-02-21T13:41:32;5.43;;;1.77;;
46613;SDS011;32338;50.430;6.806;2024-02-21T13:43:59;9.00;;;2.10;;
46613;SDS011;32338;50.430;6.806;2024-02-21T13:46:26;6.90;;;1.92;;
46613;SDS011;32338;50.430;6.806;2024-02-21T13:48:54;6.20;;;2.65;;
46613;SDS011;32338;50.430;6.806;2024-02-21T13:51:30;12.82;;;2.65;;
46613;SDS011;32338;50.430;6.806;2024-02-21T13:53:57;6.38;;;2.03;;
46613;SDS011;32338;50.430;6.806;2024-02-21T13:56:24;9.23;;;2.22;;
46613;SDS011;32338;50.430;6.806;2024-02-21T13:58:51;9.60;;;2.08;;
46613;SDS011;32338;50.430;6.806;2024-02-21T14:01:17;5.55;;;2.03;;
46613;SDS011;32338;50.430;6.806;2024-02-21T14:03:44;5.15;;;1.65;;
46613;SDS011;32338;50.430;6.806;2024-02-21T14:06:12;7.18;;;1.80;;
46613;SDS011;32338;50.430;6.806;2024-02-21T14:08:38;9.48;;;2.90;;
46613;SDS011;32338;50.430;6.806;2024-02-21T14:11:05;14.15;;;2.35;;
46613;SDS011;32338;50.430;6.806;2024-02-21T14:13:32;9.18;;;2.03;;
46613;SDS011;32338;50.430;6.806;2024-02-21T14:15:59;11.40;;;1.70;;
46613;SDS011;32338;50.430;6.806;2024-02-21T14:18:25;9.15;;;1.80;;
46613;SDS011;32338;50.430;6.806;2024-02-21T14:20:52;8.38;;;2.10;;
46613;SDS011;32338;50.430;6.806;2024-02-21T14:23:20;8.50;;;2.53;;
46613;SDS011;32338;50.430;6.806;2024-02-21T14:25:47;7.32;;;2.38;;
46613;SDS011;32338;50.430;6.806;2024-02-21T14:28:14;7.57;;;1.90;;
46613;SDS011;32338;50.430;6.806;2024-02-21T14:30:43;8.38;;;2.10;;
46613;SDS011;32338;50.430;6.806;2024-02-21T14:33:09;9.10;;;1.55;;
46613;SDS011;32338;50.430;6.806;2024-02-21T14:35:36;9.57;;;1.70;;
46613;SDS011;32338;50.430;6.806;2024-02-21T14:38:03;5.32;;;2.30;;